Time,TemperatureF,DewpointF,PressureIn,WindDirection,WindDirectionDegrees,WindSpeedMPH,WindSpeedGustMPH,Humidity,HourlyPrecipIn,Conditions,Clouds,dailyrainin,SoftwareType,DateUTC
2013-01-29 00:02:00,40.9,36.1,30.26,NW,312,0.0,0.0,83,0.00,,,0.00,Wunderground v.1.15,2013-01-29 08:02:00,
2013-01-29 00:08:00,41.0,35.9,30.26,NW,312,0.0,0.0,82,0.00,,,0.00,Wunderground v.1.15,2013-01-29 08:08:00,
2013-01-29 00:14:00,41.0,35.9,30.26,NW,312,0.0,0.0,82,0.00,,,0.00,Wunderground v.1.15,2013-01-29 08:14:00,
2013-01-29 00:20:00,40.8,35.7,30.26,NW,312,0.0,0.0,82,0.00,,,0.00,Wunderground v.1.15,2013-01-29 08:20:00,
2013-01-29 00:26:00,40.6,35.5,30.26,NW,312,0.0,0.0,82,0.00,,,0.00,Wunderground v.1.15,2013-01-29 08:26:00,
2013-01-29 00:32:00,40.4,35.3,30.26,NW,312,0.0,0.0,82,0.00,,,0.00,Wunderground v.1.15,2013-01-29 08:32:00,
2013-01-29 00:38:00,40.3,35.5,30.26,NW,312,0.0,0.0,83,0.00,,,0.00,Wunderground v.1.15,2013-01-29 08:38:00,
2013-01-29 00:44:00,40.3,35.5,30.26,NW,312,0.0,0.0,83,0.00,,,0.00,Wunderground v.1.15,2013-01-29 08:44:00,
2013-01-29 00:50:00,40.3,35.5,30.26,NW,312,0.0,0.0,83,0.00,,,0.00,Wunderground v.1.15,2013-01-29 08:50:00,
2013-01-29 00:56:00,40.2,35.4,30.26,NW,312,0.0,0.0,83,0.00,,,0.00,Wunderground v.1.15,2013-01-29 08:56:00,
2013-01-29 01:02:00,40.2,35.4,30.26,NW,312,0.0,0.0,83,0.00,,,0.00,Wunderground v.1.15,2013-01-29 09:02:00,
2013-01-29 01:09:00,40.1,35.4,30.26,NW,312,0.0,0.0,83,0.00,,,0.00,Wunderground v.1.15,2013-01-29 09:09:00,
2013-01-29 01:14:00,40.0,35.3,30.26,NW,312,0.0,0.0,83,0.00,,,0.00,Wunderground v.1.15,2013-01-29 09:14:00,
2013-01-29 01:20:00,39.8,35.1,30.26,NW,312,0.0,0.0,83,0.00,,,0.00,Wunderground v.1.15,2013-01-29 09:20:00,
2013-01-29 01:26:00,39.6,34.9,30.26,NW,312,0.0,0.0,83,0.00,,,0.00,Wunderground v.1.15,2013-01-29 09:26:00,
2013-01-29 01:32:00,39.4,34.7,30.26,NW,312,0.0,0.0,83,0.00,,,0.00,Wunderground v.1.15,2013-01-29 09:32:00,
2013-01-29 01:38:00,39.1,34.4,30.27,NW,312,0.0,0.0,83,0.00,,,0.00,Wunderground v.1.15,2013-01-29 09:38:00,
2013-01-29 01:44:00,38.8,34.1,30.27,NW,312,0.0,0.0,83,0.00,,,0.00,Wunderground v.1.15,2013-01-29 09:44:00,
2013-01-29 01:50:00,38.5,34.1,30.27,NW,312,0.0,0.0,84,0.00,,,0.00,Wunderground v.1.15,2013-01-29 09:50:00,
2013-01-29 01:56:00,38.4,34.0,30.27,NW,312,0.0,0.0,84,0.00,,,0.00,Wunderground v.1.15,2013-01-29 09:56:00,
2013-01-29 02:02:00,38.3,33.9,30.27,NW,312,0.0,0.0,84,0.00,,,0.00,Wunderground v.1.15,2013-01-29 10:02:00,
2013-01-29 02:09:00,38.1,33.7,30.27,NW,312,0.0,0.0,84,0.00,,,0.00,Wunderground v.1.15,2013-01-29 10:09:00,
2013-01-29 02:14:00,38.0,33.6,30.27,NW,312,0.0,0.0,84,0.00,,,0.00,Wunderground v.1.15,2013-01-29 10:14:00,
2013-01-29 02:20:00,37.9,33.8,30.27,NW,312,0.0,0.0,85,0.00,,,0.00,Wunderground v.1.15,2013-01-29 10:20:00,
2013-01-29 02:26:00,37.7,33.6,30.27,NW,312,0.0,0.0,85,0.00,,,0.00,Wunderground v.1.15,2013-01-29 10:26:00,
2013-01-29 02:32:00,37.5,33.4,30.27,NW,312,0.0,0.0,85,0.00,,,0.00,Wunderground v.1.15,2013-01-29 10:32:00,
2013-01-29 02:39:00,37.3,33.2,30.27,NW,312,0.0,0.0,85,0.00,,,0.00,Wunderground v.1.15,2013-01-29 10:39:00,
2013-01-29 02:44:00,37.2,33.1,30.27,NW,312,0.0,0.0,85,0.00,,,0.00,Wunderground v.1.15,2013-01-29 10:44:00,
2013-01-29 02:50:00,37.1,33.0,30.27,NW,312,0.0,0.0,85,0.00,,,0.00,Wunderground v.1.15,2013-01-29 10:50:00,
2013-01-29 02:56:00,36.9,33.1,30.28,NW,312,0.0,0.0,86,0.00,,,0.00,Wunderground v.1.15,2013-01-29 10:56:00,
2013-01-29 03:02:00,36.9,33.1,30.28,NW,312,0.0,0.0,86,0.00,,,0.00,Wunderground v.1.15,2013-01-29 11:02:00,
2013-01-29 03:08:00,37.0,33.2,30.28,NW,312,0.0,0.0,86,0.00,,,0.00,Wunderground v.1.15,2013-01-29 11:08:00,
2013-01-29 03:14:00,37.1,33.3,30.28,NW,312,0.0,0.0,86,0.00,,,0.00,Wunderground v.1.15,2013-01-29 11:14:00,
2013-01-29 03:20:00,37.2,33.4,30.28,NW,312,0.0,0.0,86,0.00,,,0.00,Wunderground v.1.15,2013-01-29 11:20:00,
2013-01-29 03:26:00,37.2,33.4,30.28,NW,312,0.0,0.0,86,0.00,,,0.00,Wunderground v.1.15,2013-01-29 11:26:00,
2013-01-29 03:32:00,37.1,33.3,30.28,NW,312,0.0,0.0,86,0.00,,,0.00,Wunderground v.1.15,2013-01-29 11:32:00,
2013-01-29 03:38:00,37.1,33.3,30.27,NW,312,0.0,0.0,86,0.00,,,0.00,Wunderground v.1.15,2013-01-29 11:38:00,
2013-01-29 03:45:00,37.1,33.3,30.27,NW,312,0.0,0.0,86,0.00,,,0.00,Wunderground v.1.15,2013-01-29 11:45:00,
2013-01-29 03:51:00,37.0,33.2,30.27,NW,312,0.0,0.0,86,0.00,,,0.00,Wunderground v.1.15,2013-01-29 11:51:00,
2013-01-29 03:57:00,37.0,33.2,30.27,NW,312,0.0,0.0,86,0.00,,,0.00,Wunderground v.1.15,2013-01-29 11:57:00,
2013-01-29 04:03:00,36.9,33.1,30.27,NW,312,0.0,0.0,86,0.00,,,0.00,Wunderground v.1.15,2013-01-29 12:03:00,
2013-01-29 04:09:00,37.0,33.5,30.28,NW,312,0.0,0.0,87,0.00,,,0.00,Wunderground v.1.15,2013-01-29 12:09:00,
2013-01-29 04:15:00,37.1,33.6,30.28,NW,312,0.0,0.0,87,0.00,,,0.00,Wunderground v.1.15,2013-01-29 12:15:00,
2013-01-29 04:21:00,37.1,33.6,30.29,NW,312,0.0,0.0,87,0.00,,,0.00,Wunderground v.1.15,2013-01-29 12:21:00,
2013-01-29 04:27:00,37.1,33.6,30.29,NW,312,0.0,0.0,87,0.00,,,0.00,Wunderground v.1.15,2013-01-29 12:27:00,
2013-01-29 04:33:00,37.4,33.9,30.29,NW,312,0.0,0.0,87,0.00,,,0.00,Wunderground v.1.15,2013-01-29 12:33:00,
2013-01-29 04:39:00,37.9,34.4,30.29,NW,312,0.0,0.0,87,0.00,,,0.00,Wunderground v.1.15,2013-01-29 12:39:00,
2013-01-29 04:45:00,37.8,34.0,30.29,NW,312,0.0,0.0,86,0.00,,,0.00,Wunderground v.1.15,2013-01-29 12:45:00,
2013-01-29 04:51:00,37.5,33.7,30.30,NW,312,0.0,0.0,86,0.00,,,0.00,Wunderground v.1.15,2013-01-29 12:51:00,
2013-01-29 04:57:00,37.3,33.5,30.30,NW,312,0.0,0.0,86,0.00,,,0.00,Wunderground v.1.15,2013-01-29 12:57:00,
2013-01-29 05:03:00,37.0,33.2,30.30,NW,312,0.0,0.0,86,0.00,,,0.00,Wunderground v.1.15,2013-01-29 13:03:00,
2013-01-29 05:09:00,36.6,32.8,30.28,NW,312,0.0,0.0,86,0.00,,,0.00,Wunderground v.1.15,2013-01-29 13:09:00,
2013-01-29 05:15:00,36.4,32.6,30.28,NW,312,0.0,0.0,86,0.00,,,0.00,Wunderground v.1.15,2013-01-29 13:15:00,
2013-01-29 05:21:00,36.2,32.4,30.29,NW,312,0.0,0.0,86,0.00,,,0.00,Wunderground v.1.15,2013-01-29 13:21:00,
2013-01-29 05:27:00,36.1,32.3,30.29,NW,312,0.0,0.0,86,0.00,,,0.00,Wunderground v.1.15,2013-01-29 13:27:00,
2013-01-29 05:33:00,36.0,32.5,30.29,NW,312,0.0,0.0,87,0.00,,,0.00,Wunderground v.1.15,2013-01-29 13:33:00,
2013-01-29 05:39:00,35.7,31.9,30.30,NW,312,0.0,0.0,86,0.00,,,0.00,Wunderground v.1.15,2013-01-29 13:39:00,
2013-01-29 05:45:00,35.6,32.1,30.29,NW,312,0.0,0.0,87,0.00,,,0.00,Wunderground v.1.15,2013-01-29 13:45:00,
2013-01-29 05:51:00,35.4,31.9,30.30,NW,312,0.0,0.0,87,0.00,,,0.00,Wunderground v.1.15,2013-01-29 13:51:00,
2013-01-29 05:57:00,35.2,31.7,30.30,NW,312,0.0,0.0,87,0.00,,,0.00,Wunderground v.1.15,2013-01-29 13:57:00,
2013-01-29 06:03:00,35.0,31.5,30.30,NW,312,0.0,0.0,87,0.00,,,0.00,Wunderground v.1.15,2013-01-29 14:03:00,
2013-01-29 06:09:00,34.9,31.4,30.30,NW,312,0.0,0.0,87,0.00,,,0.00,Wunderground v.1.15,2013-01-29 14:09:00,
2013-01-29 06:15:00,34.8,31.3,30.30,NW,312,0.0,0.0,87,0.00,,,0.00,Wunderground v.1.15,2013-01-29 14:15:00,
2013-01-29 06:21:00,34.6,31.1,30.31,NW,312,0.0,0.0,87,0.00,,,0.00,Wunderground v.1.15,2013-01-29 14:21:00,
2013-01-29 06:27:00,34.4,30.9,30.30,NW,312,0.0,0.0,87,0.00,,,0.00,Wunderground v.1.15,2013-01-29 14:27:00,
2013-01-29 06:33:00,34.4,30.9,30.29,NW,312,0.0,0.0,87,0.00,,,0.00,Wunderground v.1.15,2013-01-29 14:33:00,
2013-01-29 06:39:00,34.4,30.9,30.30,NW,312,0.0,0.0,87,0.00,,,0.00,Wunderground v.1.15,2013-01-29 14:39:00,
2013-01-29 06:45:00,34.4,31.2,30.31,NW,312,0.0,0.0,88,0.00,,,0.00,Wunderground v.1.15,2013-01-29 14:45:00,
2013-01-29 06:51:00,34.4,31.2,30.31,NW,312,0.0,0.0,88,0.00,,,0.00,Wunderground v.1.15,2013-01-29 14:51:00,
2013-01-29 06:57:00,34.4,31.2,30.31,NW,312,0.0,0.0,88,0.00,,,0.00,Wunderground v.1.15,2013-01-29 14:57:00,
2013-01-29 07:03:00,34.4,31.2,30.31,SW,221,0.0,0.0,88,0.00,,,0.00,Wunderground v.1.15,2013-01-29 15:03:00,
2013-01-29 07:09:00,34.4,31.2,30.31,SW,227,0.0,0.0,88,0.00,,,0.00,Wunderground v.1.15,2013-01-29 15:09:00,
2013-01-29 07:15:00,34.4,31.2,30.31,SW,228,0.0,0.0,88,0.00,,,0.00,Wunderground v.1.15,2013-01-29 15:15:00,
2013-01-29 07:21:00,34.2,31.0,30.32,SW,228,0.0,0.0,88,0.00,,,0.00,Wunderground v.1.15,2013-01-29 15:21:00,
2013-01-29 07:27:00,34.1,30.9,30.32,SW,228,0.0,0.0,88,0.00,,,0.00,Wunderground v.1.15,2013-01-29 15:27:00,
2013-01-29 07:33:00,34.0,30.8,30.32,SW,228,0.0,0.0,88,0.00,,,0.00,Wunderground v.1.15,2013-01-29 15:33:00,
2013-01-29 07:39:00,34.1,30.9,30.32,SW,228,0.0,0.0,88,0.00,,,0.00,Wunderground v.1.15,2013-01-29 15:39:00,
2013-01-29 07:45:00,34.1,30.9,30.31,WNW,294,0.0,0.0,88,0.00,,,0.00,Wunderground v.1.15,2013-01-29 15:45:00,
2013-01-29 07:51:00,34.2,31.0,30.32,WNW,294,0.0,0.0,88,0.00,,,0.00,Wunderground v.1.15,2013-01-29 15:51:00,
2013-01-29 07:57:00,34.4,31.2,30.32,WNW,294,0.0,0.0,88,0.00,,,0.00,Wunderground v.1.15,2013-01-29 15:57:00,
2013-01-29 08:03:00,34.4,31.2,30.33,WNW,294,0.0,0.0,88,0.00,,,0.00,Wunderground v.1.15,2013-01-29 16:03:00,
2013-01-29 08:09:00,34.6,31.7,30.33,WNW,294,0.0,0.0,89,0.00,,,0.00,Wunderground v.1.15,2013-01-29 16:09:00,
2013-01-29 08:15:00,34.8,31.6,30.33,WNW,294,0.0,0.0,88,0.00,,,0.00,Wunderground v.1.15,2013-01-29 16:15:00,
2013-01-29 08:21:00,35.1,32.2,30.33,WNW,293,0.0,0.0,89,0.00,,,0.00,Wunderground v.1.15,2013-01-29 16:21:00,
2013-01-29 08:27:00,35.4,32.5,30.33,WNW,294,0.0,0.0,89,0.00,,,0.00,Wunderground v.1.15,2013-01-29 16:27:00,
2013-01-29 08:33:00,35.9,33.0,30.32,WNW,294,0.0,0.0,89,0.00,,,0.00,Wunderground v.1.15,2013-01-29 16:33:00,
2013-01-29 08:39:00,36.7,33.8,30.33,WNW,294,0.0,0.0,89,0.00,,,0.00,Wunderground v.1.15,2013-01-29 16:39:00,
2013-01-29 08:45:00,37.5,34.6,30.33,WNW,294,0.0,0.0,89,0.00,,,0.00,Wunderground v.1.15,2013-01-29 16:45:00,
2013-01-29 08:51:00,38.2,35.2,30.33,WNW,294,0.0,0.0,89,0.00,,,0.00,Wunderground v.1.15,2013-01-29 16:51:00,
2013-01-29 08:57:00,38.8,35.8,30.33,WNW,294,0.0,0.0,89,0.00,,,0.00,Wunderground v.1.15,2013-01-29 16:57:00,
2013-01-29 09:03:00,39.5,36.5,30.33,WNW,294,0.0,0.0,89,0.00,,,0.00,Wunderground v.1.15,2013-01-29 17:03:00,
2013-01-29 09:09:00,40.0,36.7,30.33,WNW,294,0.0,0.0,88,0.00,,,0.00,Wunderground v.1.15,2013-01-29 17:09:00,
2013-01-29 09:15:00,40.5,37.2,30.33,WNW,294,0.0,0.0,88,0.00,,,0.00,Wunderground v.1.15,2013-01-29 17:15:00,
2013-01-29 09:21:00,41.1,37.5,30.33,WNW,294,0.0,0.0,87,0.00,,,0.00,Wunderground v.1.15,2013-01-29 17:21:00,
2013-01-29 09:27:00,41.9,38.0,30.33,WNW,294,0.0,0.0,86,0.00,,,0.00,Wunderground v.1.15,2013-01-29 17:27:00,
2013-01-29 09:33:00,42.8,38.6,30.33,WNW,294,0.0,0.0,85,0.00,,,0.00,Wunderground v.1.15,2013-01-29 17:33:00,
2013-01-29 09:39:00,43.7,38.6,30.33,NW,318,0.0,0.0,82,0.00,,,0.00,Wunderground v.1.15,2013-01-29 17:39:00,
2013-01-29 09:45:00,44.0,37.9,30.34,NW,318,0.0,1.0,79,0.00,,,0.00,Wunderground v.1.15,2013-01-29 17:45:00,
2013-01-29 09:51:00,44.0,37.6,30.34,NW,315,1.0,3.0,78,0.00,,,0.00,Wunderground v.1.15,2013-01-29 17:51:00,
2013-01-29 09:57:00,44.3,37.9,30.34,NW,316,1.0,1.0,78,0.00,,,0.00,Wunderground v.1.15,2013-01-29 17:57:00,
2013-01-29 10:03:00,44.8,38.0,30.34,NW,317,0.0,2.0,77,0.00,,,0.00,Wunderground v.1.15,2013-01-29 18:03:00,
2013-01-29 10:09:00,45.5,38.0,30.34,NW,317,1.0,2.0,75,0.00,,,0.00,Wunderground v.1.15,2013-01-29 18:09:00,
2013-01-29 10:15:00,46.3,38.5,30.34,NW,317,0.0,1.0,74,0.00,,,0.00,Wunderground v.1.15,2013-01-29 18:15:00,
2013-01-29 10:21:00,46.9,38.7,30.34,NW,317,0.0,1.0,73,0.00,,,0.00,Wunderground v.1.15,2013-01-29 18:21:00,
2013-01-29 10:27:00,47.6,39.0,30.33,NW,317,0.0,1.0,72,0.00,,,0.00,Wunderground v.1.15,2013-01-29 18:27:00,
2013-01-29 10:33:00,48.3,39.0,30.33,NW,318,0.0,1.0,70,0.00,,,0.00,Wunderground v.1.15,2013-01-29 18:33:00,
2013-01-29 10:39:00,48.9,39.2,30.34,NW,319,0.0,3.0,69,0.00,,,0.00,Wunderground v.1.15,2013-01-29 18:39:00,
2013-01-29 10:45:00,49.3,38.8,30.34,NW,326,1.0,1.0,67,0.00,,,0.00,Wunderground v.1.15,2013-01-29 18:45:00,
2013-01-29 10:51:00,49.9,38.6,30.34,NNW,342,1.0,1.0,65,0.00,,,0.00,Wunderground v.1.15,2013-01-29 18:51:00,
2013-01-29 10:57:00,50.4,38.7,30.34,NNW,333,0.0,2.0,64,0.00,,,0.00,Wunderground v.1.15,2013-01-29 18:57:00,
2013-01-29 11:03:00,50.6,38.5,30.34,NNW,334,1.0,1.0,63,0.00,,,0.00,Wunderground v.1.15,2013-01-29 19:03:00,
2013-01-29 11:09:00,51.2,39.8,30.34,NNW,334,0.0,1.0,65,0.00,,,0.00,Wunderground v.1.15,2013-01-29 19:09:00,
2013-01-29 11:15:00,51.9,38.9,30.34,NNW,334,0.0,0.0,61,0.00,,,0.00,Wunderground v.1.15,2013-01-29 19:15:00,
2013-01-29 11:21:00,52.8,39.7,30.33,NW,317,0.0,0.0,61,0.00,,,0.00,Wunderground v.1.15,2013-01-29 19:21:00,
2013-01-29 11:27:00,53.0,37.7,30.33,NW,317,0.0,3.0,56,0.00,,,0.00,Wunderground v.1.15,2013-01-29 19:27:00,
2013-01-29 11:33:00,53.3,40.2,30.33,NW,317,0.0,0.0,61,0.00,,,0.00,Wunderground v.1.15,2013-01-29 19:33:00,
2013-01-29 11:39:00,53.8,39.8,30.33,NW,317,0.0,0.0,59,0.00,,,0.00,Wunderground v.1.15,2013-01-29 19:39:00,
2013-01-29 11:45:00,54.8,40.3,30.32,WNW,302,0.0,0.0,58,0.00,,,0.00,Wunderground v.1.15,2013-01-29 19:45:00,
2013-01-29 11:50:00,55.0,39.1,30.32,NW,304,0.0,1.0,55,0.00,,,0.00,Wunderground v.1.15,2013-01-29 19:50:00,
2013-01-29 11:57:00,54.7,38.4,30.32,NNE,26,1.0,2.0,54,0.00,,,0.00,Wunderground v.1.15,2013-01-29 19:57:00,
2013-01-29 12:03:00,54.8,38.9,30.31,NW,326,1.0,1.0,55,0.00,,,0.00,Wunderground v.1.15,2013-01-29 20:03:00,
2013-01-29 12:09:00,55.2,40.2,30.31,ENE,61,0.0,1.0,57,0.00,,,0.00,Wunderground v.1.15,2013-01-29 20:09:00,
2013-01-29 12:15:00,55.6,40.1,30.31,NE,52,1.0,3.0,56,0.00,,,0.00,Wunderground v.1.15,2013-01-29 20:15:00,
2013-01-29 12:21:00,55.9,40.4,30.31,NNE,19,1.0,3.0,56,0.00,,,0.00,Wunderground v.1.15,2013-01-29 20:21:00,
2013-01-29 12:27:00,56.2,41.2,30.30,North,351,0.0,1.0,57,0.00,,,0.00,Wunderground v.1.15,2013-01-29 20:27:00,
2013-01-29 12:32:00,56.4,39.5,30.29,NW,312,1.0,1.0,53,0.00,,,0.00,Wunderground v.1.15,2013-01-29 20:32:00,
2013-01-29 12:39:00,56.8,39.8,30.29,NW,313,1.0,4.0,53,0.00,,,0.00,Wunderground v.1.15,2013-01-29 20:39:00,
2013-01-29 12:45:00,57.0,40.5,30.29,NW,313,1.0,2.0,54,0.00,,,0.00,Wunderground v.1.15,2013-01-29 20:45:00,
2013-01-29 12:50:00,57.1,40.6,30.29,NW,315,2.0,3.0,54,0.00,,,0.00,Wunderground v.1.15,2013-01-29 20:50:00,
2013-01-29 12:56:00,57.6,41.5,30.28,NW,314,1.0,2.0,55,0.00,,,0.00,Wunderground v.1.15,2013-01-29 20:56:00,
2013-01-29 13:02:00,58.1,41.5,30.27,NNW,331,1.0,1.0,54,0.00,,,0.00,Wunderground v.1.15,2013-01-29 21:02:00,
2013-01-29 13:09:00,58.4,41.3,30.27,NW,304,1.0,2.0,53,0.00,,,0.00,Wunderground v.1.15,2013-01-29 21:09:00,
2013-01-29 13:15:00,58.6,41.5,30.27,NW,313,2.0,3.0,53,0.00,,,0.00,Wunderground v.1.15,2013-01-29 21:15:00,
2013-01-29 13:21:00,58.7,41.1,30.27,NW,322,2.0,3.0,52,0.00,,,0.00,Wunderground v.1.15,2013-01-29 21:21:00,
2013-01-29 13:26:00,59.0,41.4,30.26,NW,313,2.0,3.0,52,0.00,,,0.00,Wunderground v.1.15,2013-01-29 21:26:00,
2013-01-29 13:33:00,59.0,41.4,30.26,NW,315,2.0,3.0,52,0.00,,,0.00,Wunderground v.1.15,2013-01-29 21:33:00,
2013-01-29 13:39:00,59.0,41.4,30.26,NW,315,2.0,3.0,52,0.00,,,0.00,Wunderground v.1.15,2013-01-29 21:39:00,
2013-01-29 13:45:00,59.1,41.0,30.26,NW,325,2.0,2.0,51,0.00,,,0.00,Wunderground v.1.15,2013-01-29 21:45:00,
2013-01-29 13:51:00,59.3,41.2,30.26,NNW,327,2.0,3.0,51,0.00,,,0.00,Wunderground v.1.15,2013-01-29 21:51:00,
2013-01-29 13:56:00,59.5,41.3,30.26,NW,315,1.0,1.0,51,0.00,,,0.00,Wunderground v.1.15,2013-01-29 21:56:00,
2013-01-29 14:02:00,59.6,40.9,30.26,NNE,17,2.0,2.0,50,0.00,,,0.00,Wunderground v.1.15,2013-01-29 22:02:00,
2013-01-29 14:09:00,60.0,41.8,30.26,NW,324,2.0,2.0,51,0.00,,,0.00,Wunderground v.1.15,2013-01-29 22:09:00,
2013-01-29 14:14:00,60.4,41.7,30.25,NW,316,2.0,2.0,50,0.00,,,0.00,Wunderground v.1.15,2013-01-29 22:14:00,
2013-01-29 14:21:00,60.6,41.8,30.25,NW,311,2.0,2.0,50,0.00,,,0.00,Wunderground v.1.15,2013-01-29 22:21:00,
2013-01-29 14:27:00,60.7,41.4,30.25,NW,317,2.0,2.0,49,0.00,,,0.00,Wunderground v.1.15,2013-01-29 22:27:00,
2013-01-29 14:32:00,60.9,42.1,30.25,NW,317,1.0,1.0,50,0.00,,,0.00,Wunderground v.1.15,2013-01-29 22:32:00,
2013-01-29 14:39:00,61.4,41.5,30.25,NW,314,1.0,1.0,48,0.00,,,0.00,Wunderground v.1.15,2013-01-29 22:39:00,
2013-01-29 14:45:00,61.7,41.8,30.25,NW,326,1.0,2.0,48,0.00,,,0.00,Wunderground v.1.15,2013-01-29 22:45:00,
2013-01-29 14:50:00,61.8,41.9,30.25,NW,317,1.0,2.0,48,0.00,,,0.00,Wunderground v.1.15,2013-01-29 22:50:00,
2013-01-29 14:56:00,62.0,42.1,30.25,NW,319,1.0,1.0,48,0.00,,,0.00,Wunderground v.1.15,2013-01-29 22:56:00,
2013-01-29 15:02:00,62.3,42.3,30.25,NW,313,1.0,1.0,48,0.00,,,0.00,Wunderground v.1.15,2013-01-29 23:02:00,
2013-01-29 15:09:00,62.8,42.8,30.25,NW,313,0.0,1.0,48,0.00,,,0.00,Wunderground v.1.15,2013-01-29 23:09:00,
2013-01-29 15:14:00,63.1,43.1,30.25,NW,313,0.0,0.0,48,0.00,,,0.00,Wunderground v.1.15,2013-01-29 23:14:00,
2013-01-29 15:20:00,63.2,43.2,30.24,NW,309,1.0,5.0,48,0.00,,,0.00,Wunderground v.1.15,2013-01-29 23:20:00,
2013-01-29 15:26:00,62.9,42.9,30.24,NW,313,1.0,3.0,48,0.00,,,0.00,Wunderground v.1.15,2013-01-29 23:26:00,
2013-01-29 15:32:00,62.8,42.8,30.24,NW,311,1.0,1.0,48,0.00,,,0.00,Wunderground v.1.15,2013-01-29 23:32:00,
2013-01-29 15:39:00,62.8,42.8,30.23,NW,322,1.0,1.0,48,0.00,,,0.00,Wunderground v.1.15,2013-01-29 23:39:00,
2013-01-29 15:44:00,62.8,42.8,30.24,NNW,342,1.0,2.0,48,0.00,,,0.00,Wunderground v.1.15,2013-01-29 23:44:00,
2013-01-29 15:50:00,62.7,42.7,30.23,NNW,331,1.0,2.0,48,0.00,,,0.00,Wunderground v.1.15,2013-01-29 23:50:00,
2013-01-29 15:56:00,62.5,42.5,30.23,NW,313,1.0,2.0,48,0.00,,,0.00,Wunderground v.1.15,2013-01-29 23:56:00,
2013-01-29 16:02:00,62.1,42.2,30.24,NNW,329,1.0,1.0,48,0.00,,,0.00,Wunderground v.1.15,2013-01-30 00:02:00,
2013-01-29 16:09:00,61.7,42.3,30.24,NNW,327,1.0,1.0,49,0.00,,,0.00,Wunderground v.1.15,2013-01-30 00:09:00,
2013-01-29 16:14:00,61.5,42.2,30.23,NW,307,2.0,2.0,49,0.00,,,0.00,Wunderground v.1.15,2013-01-30 00:14:00,
2013-01-29 16:20:00,61.2,41.9,30.23,NNW,327,2.0,2.0,49,0.00,,,0.00,Wunderground v.1.15,2013-01-30 00:20:00,
2013-01-29 16:26:00,60.9,42.1,30.23,NW,317,2.0,2.0,50,0.00,,,0.00,Wunderground v.1.15,2013-01-30 00:26:00,
2013-01-29 16:32:00,60.7,41.9,30.23,North,5,1.0,1.0,50,0.00,,,0.00,Wunderground v.1.15,2013-01-30 00:32:00,
2013-01-29 16:39:00,60.5,41.8,30.23,North,5,0.0,1.0,50,0.00,,,0.00,Wunderground v.1.15,2013-01-30 00:39:00,
2013-01-29 16:44:00,60.2,41.5,30.23,North,355,0.0,0.0,50,0.00,,,0.00,Wunderground v.1.15,2013-01-30 00:44:00,
2013-01-29 16:50:00,59.8,41.6,30.23,North,355,0.0,0.0,51,0.00,,,0.00,Wunderground v.1.15,2013-01-30 00:50:00,
2013-01-29 16:56:00,59.2,42.6,30.23,North,355,0.0,0.0,54,0.00,,,0.00,Wunderground v.1.15,2013-01-30 00:56:00,
2013-01-29 17:02:00,58.6,42.9,30.23,North,355,0.0,0.0,56,0.00,,,0.00,Wunderground v.1.15,2013-01-30 01:02:00,
2013-01-29 17:08:00,57.5,42.8,30.23,North,355,0.0,0.0,58,0.00,,,0.00,Wunderground v.1.15,2013-01-30 01:08:00,
2013-01-29 17:14:00,56.5,43.2,30.24,North,355,0.0,0.0,61,0.00,,,0.00,Wunderground v.1.15,2013-01-30 01:14:00,
2013-01-29 17:20:00,55.4,42.6,30.23,North,355,0.0,0.0,62,0.00,,,0.00,Wunderground v.1.15,2013-01-30 01:20:00,
2013-01-29 17:26:00,54.6,42.7,30.24,North,355,0.0,0.0,64,0.00,,,0.00,Wunderground v.1.15,2013-01-30 01:26:00,
2013-01-29 17:32:00,53.8,42.3,30.24,North,355,0.0,0.0,65,0.00,,,0.00,Wunderground v.1.15,2013-01-30 01:32:00,
2013-01-29 17:39:00,52.9,41.8,30.24,North,355,0.0,0.0,66,0.00,,,0.00,Wunderground v.1.15,2013-01-30 01:39:00,
2013-01-29 17:44:00,52.2,41.6,30.24,North,355,0.0,0.0,67,0.00,,,0.00,Wunderground v.1.15,2013-01-30 01:44:00,
2013-01-29 17:50:00,51.6,41.4,30.24,North,355,0.0,0.0,68,0.00,,,0.00,Wunderground v.1.15,2013-01-30 01:50:00,
2013-01-29 17:56:00,51.1,41.3,30.25,North,355,0.0,0.0,69,0.00,,,0.00,Wunderground v.1.15,2013-01-30 01:56:00,
2013-01-29 18:02:00,50.6,41.2,30.25,North,355,0.0,0.0,70,0.00,,,0.00,Wunderground v.1.15,2013-01-30 02:02:00,
2013-01-29 18:09:00,50.1,41.1,30.25,North,355,0.0,0.0,71,0.00,,,0.00,Wunderground v.1.15,2013-01-30 02:09:00,
2013-01-29 18:14:00,49.6,40.9,30.25,North,355,0.0,0.0,72,0.00,,,0.00,Wunderground v.1.15,2013-01-30 02:14:00,
2013-01-29 18:20:00,49.2,40.9,30.25,North,355,0.0,0.0,73,0.00,,,0.00,Wunderground v.1.15,2013-01-30 02:20:00,
2013-01-29 18:26:00,48.8,40.5,30.25,North,355,0.0,0.0,73,0.00,,,0.00,Wunderground v.1.15,2013-01-30 02:26:00,
2013-01-29 18:32:00,48.3,40.4,30.26,North,355,0.0,0.0,74,0.00,,,0.00,Wunderground v.1.15,2013-01-30 02:32:00,
2013-01-29 18:38:00,47.9,40.0,30.26,North,355,0.0,0.0,74,0.00,,,0.00,Wunderground v.1.15,2013-01-30 02:38:00,
2013-01-29 18:44:00,47.6,39.7,30.26,North,355,0.0,0.0,74,0.00,,,0.00,Wunderground v.1.15,2013-01-30 02:44:00,
2013-01-29 18:50:00,47.3,39.8,30.26,North,355,0.0,0.0,75,0.00,,,0.00,Wunderground v.1.15,2013-01-30 02:50:00,
2013-01-29 18:56:00,46.9,39.7,30.26,North,355,0.0,0.0,76,0.00,,,0.00,Wunderground v.1.15,2013-01-30 02:56:00,
2013-01-29 19:02:00,46.7,39.9,30.26,North,355,0.0,0.0,77,0.00,,,0.00,Wunderground v.1.15,2013-01-30 03:02:00,
2013-01-29 19:08:00,46.4,39.6,30.26,North,355,0.0,0.0,77,0.00,,,0.00,Wunderground v.1.15,2013-01-30 03:08:00,
2013-01-29 19:14:00,46.3,39.5,30.27,North,355,0.0,0.0,77,0.00,,,0.00,Wunderground v.1.15,2013-01-30 03:14:00,
2013-01-29 19:20:00,46.1,39.6,30.27,North,355,0.0,0.0,78,0.00,,,0.00,Wunderground v.1.15,2013-01-30 03:20:00,
2013-01-29 19:26:00,46.1,39.6,30.27,North,355,0.0,0.0,78,0.00,,,0.00,Wunderground v.1.15,2013-01-30 03:26:00,
2013-01-29 19:32:00,45.9,39.4,30.26,North,355,0.0,0.0,78,0.00,,,0.00,Wunderground v.1.15,2013-01-30 03:32:00,
2013-01-29 19:38:00,45.7,39.2,30.27,North,355,0.0,0.0,78,0.00,,,0.00,Wunderground v.1.15,2013-01-30 03:38:00,
2013-01-29 19:44:00,45.5,39.4,30.27,North,355,0.0,0.0,79,0.00,,,0.00,Wunderground v.1.15,2013-01-30 03:44:00,
2013-01-29 19:50:00,45.4,39.3,30.27,North,355,0.0,0.0,79,0.00,,,0.00,Wunderground v.1.15,2013-01-30 03:50:00,
2013-01-29 19:56:00,45.2,39.4,30.27,North,355,0.0,0.0,80,0.00,,,0.00,Wunderground v.1.15,2013-01-30 03:56:00,
2013-01-29 20:02:00,45.2,39.4,30.27,North,355,0.0,0.0,80,0.00,,,0.00,Wunderground v.1.15,2013-01-30 04:02:00,
2013-01-29 20:08:00,45.3,39.8,30.27,North,355,0.0,0.0,81,0.00,,,0.00,Wunderground v.1.15,2013-01-30 04:08:00,
2013-01-29 20:14:00,45.4,39.6,30.27,North,355,0.0,0.0,80,0.00,,,0.00,Wunderground v.1.15,2013-01-30 04:14:00,
2013-01-29 20:20:00,45.5,39.7,30.27,North,355,0.0,0.0,80,0.00,,,0.00,Wunderground v.1.15,2013-01-30 04:20:00,
2013-01-29 20:26:00,45.4,39.6,30.28,North,355,0.0,0.0,80,0.00,,,0.00,Wunderground v.1.15,2013-01-30 04:26:00,
2013-01-29 20:32:00,45.2,39.7,30.28,North,355,0.0,0.0,81,0.00,,,0.00,Wunderground v.1.15,2013-01-30 04:32:00,
2013-01-29 20:39:00,45.0,39.5,30.28,North,355,0.0,0.0,81,0.00,,,0.00,Wunderground v.1.15,2013-01-30 04:39:00,
2013-01-29 20:45:00,44.7,39.2,30.28,North,355,0.0,0.0,81,0.00,,,0.00,Wunderground v.1.15,2013-01-30 04:45:00,
2013-01-29 20:51:00,44.5,39.0,30.28,North,355,0.0,0.0,81,0.00,,,0.00,Wunderground v.1.15,2013-01-30 04:51:00,
2013-01-29 20:57:00,44.4,38.9,30.28,North,355,0.0,0.0,81,0.00,,,0.00,Wunderground v.1.15,2013-01-30 04:57:00,
2013-01-29 21:03:00,44.1,39.0,30.28,North,355,0.0,0.0,82,0.00,,,0.00,Wunderground v.1.15,2013-01-30 05:03:00,
2013-01-29 21:05:00,44.0,38.9,30.28,North,355,0.0,0.0,82,0.00,,,0.00,Wunderground v.1.15,2013-01-30 05:05:00,
2013-01-29 21:09:00,43.8,38.7,30.28,North,355,0.0,0.0,82,0.00,,,0.00,Wunderground v.1.15,2013-01-30 05:09:00,
2013-01-29 21:11:00,43.8,38.7,30.28,North,355,0.0,0.0,82,0.00,,,0.00,Wunderground v.1.15,2013-01-30 05:11:00,
2013-01-29 21:17:00,43.6,38.5,30.28,North,355,0.0,0.0,82,0.00,,,0.00,Wunderground v.1.15,2013-01-30 05:17:00,
2013-01-29 21:23:00,43.3,38.2,30.28,North,355,0.0,0.0,82,0.00,,,0.00,Wunderground v.1.15,2013-01-30 05:23:00,
2013-01-29 21:29:00,43.0,37.9,30.28,North,355,0.0,0.0,82,0.00,,,0.00,Wunderground v.1.15,2013-01-30 05:29:00,
2013-01-29 21:35:00,42.8,38.0,30.28,North,355,0.0,1.0,83,0.00,,,0.00,Wunderground v.1.15,2013-01-30 05:35:00,
2013-01-29 21:41:00,42.6,37.8,30.28,North,355,0.0,1.0,83,0.00,,,0.00,Wunderground v.1.15,2013-01-30 05:41:00,
2013-01-29 21:47:00,42.3,37.5,30.28,North,355,0.0,0.0,83,0.00,,,0.00,Wunderground v.1.15,2013-01-30 05:47:00,
2013-01-29 21:53:00,42.2,37.4,30.28,North,355,0.0,0.0,83,0.00,,,0.00,Wunderground v.1.15,2013-01-30 05:53:00,
2013-01-29 21:59:00,41.9,37.4,30.28,West,277,0.0,0.0,84,0.00,,,0.00,Wunderground v.1.15,2013-01-30 05:59:00,
2013-01-29 22:05:00,41.8,37.3,30.28,West,277,0.0,0.0,84,0.00,,,0.00,Wunderground v.1.15,2013-01-30 06:05:00,
2013-01-29 22:11:00,41.6,37.1,30.27,West,277,0.0,0.0,84,0.00,,,0.00,Wunderground v.1.15,2013-01-30 06:11:00,
2013-01-29 22:17:00,41.5,37.0,30.28,West,277,0.0,0.0,84,0.00,,,0.00,Wunderground v.1.15,2013-01-30 06:17:00,
2013-01-29 22:23:00,41.4,37.2,30.28,West,277,0.0,0.0,85,0.00,,,0.00,Wunderground v.1.15,2013-01-30 06:23:00,
2013-01-29 22:29:00,41.4,37.2,30.28,West,277,0.0,0.0,85,0.00,,,0.00,Wunderground v.1.15,2013-01-30 06:29:00,
2013-01-29 22:35:00,41.2,37.0,30.28,West,277,0.0,0.0,85,0.00,,,0.00,Wunderground v.1.15,2013-01-30 06:35:00,
2013-01-29 22:41:00,41.1,36.9,30.28,West,277,0.0,0.0,85,0.00,,,0.00,Wunderground v.1.15,2013-01-30 06:41:00,
2013-01-29 22:47:00,40.9,36.7,30.28,West,277,0.0,0.0,85,0.00,,,0.00,Wunderground v.1.15,2013-01-30 06:47:00,
2013-01-29 22:53:00,40.9,36.7,30.28,West,277,0.0,0.0,85,0.00,,,0.00,Wunderground v.1.15,2013-01-30 06:53:00,
2013-01-29 22:59:00,40.9,37.0,30.28,West,277,0.0,0.0,86,0.00,,,0.00,Wunderground v.1.15,2013-01-30 06:59:00,
2013-01-29 23:05:00,40.8,36.9,30.28,West,277,0.0,1.0,86,0.00,,,0.00,Wunderground v.1.15,2013-01-30 07:05:00,
2013-01-29 23:11:00,40.9,37.0,30.28,West,277,0.0,1.0,86,0.00,,,0.00,Wunderground v.1.15,2013-01-30 07:11:00,
2013-01-29 23:17:00,40.9,37.0,30.28,West,277,0.0,0.0,86,0.00,,,0.00,Wunderground v.1.15,2013-01-30 07:17:00,
2013-01-29 23:23:00,40.8,36.9,30.28,West,277,0.0,0.0,86,0.00,,,0.00,Wunderground v.1.15,2013-01-30 07:23:00,
2013-01-29 23:29:00,40.9,37.0,30.28,West,277,0.0,0.0,86,0.00,,,0.00,Wunderground v.1.15,2013-01-30 07:29:00,
2013-01-29 23:35:00,40.9,37.0,30.28,West,277,0.0,0.0,86,0.00,,,0.00,Wunderground v.1.15,2013-01-30 07:35:00,
2013-01-29 23:41:00,41.8,38.5,30.28,WNW,289,0.0,2.0,88,0.00,,,0.00,Wunderground v.1.15,2013-01-30 07:41:00,
2013-01-29 23:47:00,43.2,39.9,30.28,WNW,289,0.0,0.0,88,0.00,,,0.00,Wunderground v.1.15,2013-01-30 07:47:00,
2013-01-29 23:53:00,44.0,40.1,30.28,WNW,289,0.0,0.0,86,0.00,,,0.00,Wunderground v.1.15,2013-01-30 07:53:00,
2013-01-29 23:59:00,45.0,40.8,30.28,WNW,294,0.0,1.0,85,0.00,,,0.00,Wunderground v.1.15,2013-01-30 07:59:00,